Mossyrock, Washington
Current Conditions -  °F | °C
As of 8:35 PM on Wednesday 26 Nov 2014 (Local Time) from KCLS Reporting Station
NA  
Wind Chill: 59°   Ceiling: NA
Heat Index: 59°   Visibility: 10mi
Dew Point: 52°   Wind: 9mph
Humidity: 77%   Direction: 170°S
Pressure: 29.92"   Gusts: 21mph
Location:  46.53°N, 122.49°W
Report Text: KCLS 270435Z AUTO 17008G18KT 140V210 10SM 15/11 A2992 RMK AO2
Loading
Personal Weather Stations






























Interactive Weather Map New forecast layout! Learn more

10-Day Weather Forecast

Advertisements
Track Severe Weather on mobile